HBR401 EGEO-EGPO

Flight info

Callsign HBR401
Flight time N/A
Altitude 10000
Route STN
Aircraft BN2P/L-SFG/C

Departure

Time 2026-04-12 14:48
Airport Oban Airport (EGEO)

Arrival

Time N/A
Airport Stornoway Airport (EGPO)
Time Latitude Longitude Altitude Speed Heading
2026-04-12 14:34 56.46552 -5.39794 31 ft 0 kts 255°
2026-04-12 14:39 56.46552 -5.39795 31 ft 0 kts 255°
2026-04-12 14:39 56.46549 -5.39814 31 ft 3 kts 255°
2026-04-12 14:39 56.46545 -5.39842 31 ft 0 kts 255°
2026-04-12 14:42 56.46552 -5.39900 31 ft 8 kts 280°
2026-04-12 14:42 56.46598 -5.39934 32 ft 14 kts 359°
2026-04-12 14:43 56.46702 -5.39924 32 ft 14 kts
2026-04-12 14:43 56.46795 -5.39908 31 ft 13 kts 11°
2026-04-12 14:43 56.46820 -5.39888 31 ft 0 kts 10°
2026-04-12 14:43 56.46830 -5.39896 31 ft 0 kts 286°
2026-04-12 14:44 56.46825 -5.39905 31 ft 2 kts 212°
2026-04-12 14:44 56.46821 -5.39906 31 ft 0 kts 186°
2026-04-12 14:46 56.46743 -5.39922 32 ft 30 kts 189°
2026-04-12 14:47 56.46463 -5.39986 103 ft 43 kts 201°
2026-04-12 14:47 56.46173 -5.39859 203 ft 55 kts 175°
2026-04-12 14:47 56.45862 -5.39900 277 ft 48 kts 212°
2026-04-12 14:47 56.45620 -5.40181 487 ft 31 kts 220°
2026-04-12 14:48 56.45584 -5.40723 458 ft 70 kts 283°
2026-04-12 14:48 56.46007 -5.41226 694 ft 65 kts 302°
2026-04-12 14:48 56.46377 -5.41600 868 ft 61 kts 297°
2026-04-12 14:48 56.46781 -5.41844 958 ft 53 kts 300°
2026-04-12 14:49 56.47061 -5.42196 939 ft 63 kts 310°
2026-04-12 14:49 56.47508 -5.42291 943 ft 72 kts 316°
2026-04-12 14:49 56.47993 -5.42373 1003 ft 62 kts 315°
2026-04-12 14:49 56.48419 -5.42562 980 ft 65 kts 313°
2026-04-12 14:50 56.48844 -5.42688 929 ft 63 kts 313°
2026-04-12 14:50 56.49226 -5.42979 917 ft 61 kts 307°
2026-04-12 14:50 56.49564 -5.43359 939 ft 47 kts 282°
2026-04-12 14:50 56.49688 -5.43841 937 ft 32 kts 251°
2026-04-12 14:51 56.49798 -5.44322 832 ft 74 kts 304°
2026-04-12 14:51 56.50245 -5.44746 970 ft 76 kts 310°
2026-04-12 14:51 56.50830 -5.44924 1046 ft 87 kts 330°
2026-04-12 14:51 56.51414 -5.44985 1243 ft 78 kts 337°
2026-04-12 14:52 56.51973 -5.44909 1266 ft 87 kts 338°
2026-04-12 14:52 56.52571 -5.44794 1336 ft 85 kts 340°
2026-04-12 14:52 56.53164 -5.44558 1412 ft 87 kts 353°
2026-04-12 14:52 56.53761 -5.44310 1418 ft 86 kts 347°
2026-04-12 14:53 56.54349 -5.44077 1380 ft 91 kts 344°
2026-04-12 14:53 56.54947 -5.43812 1433 ft 88 kts 353°
2026-04-12 14:53 56.55532 -5.43490 1447 ft 90 kts 351°
2026-04-12 14:53 56.56173 -5.42989 1382 ft 99 kts
2026-04-12 14:54 56.56800 -5.42646 1354 ft 101 kts 351°
2026-04-12 14:54 56.57539 -5.42327 1312 ft 114 kts
2026-04-12 14:54 56.58259 -5.41789 1376 ft 116 kts 13°
2026-04-12 14:54 56.58982 -5.41026 1370 ft 120 kts 21°
2026-04-12 14:55 56.59731 -5.40276 1375 ft 123 kts 15°
2026-04-12 14:55 56.60456 -5.39745 1586 ft 96 kts 357°
2026-04-12 14:55 56.61120 -5.39471 1548 ft 101 kts 348°